Time;durP1;ratioP1;P1;durP2;ratioP2;P2;SDS_P1;SDS_P2;PMS_P1;PMS_P2;Temp;Humidity;BMP_temperature;BMP_pressure;BME280_temperature;BME280_humidity;BME280_pressure;Samples;Min_cycle;Max_cycle;Signal;HPM_P1;HPM_P2
2023/05/01 00:00:11;;;;;;;4.55;4.07;;;;;;;13.53;57.64;94613.78;4210891;28;20389;-59
2023/05/01 00:02:12;;;;;;;8.43;4.68;;;;;;;13.50;58.18;94612.31;4211045;28;20159;-60
2023/05/01 00:04:15;;;;;;;5.55;4.70;;;;;;;13.42;58.38;94607.13;4213023;28;20072;-60
2023/05/01 00:06:17;;;;;;;5.43;4.40;;;;;;;13.36;58.35;94614.91;4209426;28;20043;-60
2023/05/01 00:08:19;;;;;;;4.88;4.40;;;;;;;13.31;58.85;94610.19;4216933;28;20194;-61
2023/05/01 00:10:20;;;;;;;6.45;5.05;;;;;;;13.28;58.43;94613.16;4217523;28;20051;-61
2023/05/01 00:12:23;;;;;;;6.43;4.95;;;;;;;13.14;59.55;94611.28;4219698;28;20050;-61
2023/05/01 00:14:24;;;;;;;5.57;4.55;;;;;;;13.13;59.47;94607.03;4223483;28;20641;-60
2023/05/01 00:16:26;;;;;;;5.50;4.70;;;;;;;13.09;59.43;94603.94;4211559;28;20108;-61
2023/05/01 00:18:31;;;;;;;6.65;5.13;;;;;;;13.06;59.59;94606.91;4222312;28;20051;-61
2023/05/01 00:20:32;;;;;;;8.50;5.35;;;;;;;13.13;59.67;94597.31;4225768;28;20044;-62
2023/05/01 00:22:34;;;;;;;8.95;5.50;;;;;;;13.11;59.62;94605.38;4221798;28;20047;-62
2023/05/01 00:24:36;;;;;;;5.35;4.72;;;;;;;13.13;59.42;94609.66;4224910;28;20035;-60
2023/05/01 00:26:38;;;;;;;6.75;4.53;;;;;;;13.06;60.08;94610.38;4219395;28;20071;-60
2023/05/01 00:28:39;;;;;;;6.15;5.50;;;;;;;13.11;59.93;94610.63;4218080;28;20548;-61
2023/05/01 00:30:41;;;;;;;5.82;4.90;;;;;;;13.12;59.66;94606.22;4221722;28;20047;-62
2023/05/01 00:32:42;;;;;;;6.68;4.82;;;;;;;13.11;59.64;94609.81;4219136;28;20104;-60
2023/05/01 00:34:46;;;;;;;5.32;4.35;;;;;;;13.15;60.06;94610.31;4225656;28;20062;-62
2023/05/01 00:36:48;;;;;;;7.53;5.30;;;;;;;13.11;59.81;94615.91;4220070;28;20128;-64
2023/05/01 00:38:51;;;;;;;6.18;4.80;;;;;;;13.09;59.96;94615.25;4213950;28;20079;-63
2023/05/01 00:40:52;;;;;;;6.07;5.20;;;;;;;13.13;59.65;94620.19;4212449;28;20475;-61
2023/05/01 00:42:55;;;;;;;5.50;4.85;;;;;;;13.13;60.09;94618.38;4214292;28;20052;-61
2023/05/01 00:44:57;;;;;;;9.57;5.13;;;;;;;13.20;59.24;94621.09;4212344;28;20097;-60
2023/05/01 00:47:01;;;;;;;5.78;5.18;;;;;;;13.24;59.55;94630.28;4221180;28;20425;-62
2023/05/01 00:49:03;;;;;;;5.65;4.65;;;;;;;13.18;59.88;94628.34;4217663;28;20047;-61
2023/05/01 00:51:06;;;;;;;7.20;5.22;;;;;;;13.23;59.42;94631.28;4223875;28;20087;-62
2023/05/01 00:53:08;;;;;;;5.75;5.15;;;;;;;13.10;59.70;94624.00;4224389;28;20054;-62
2023/05/01 00:55:11;;;;;;;7.90;5.10;;;;;;;12.96;60.31;94630.81;4223230;28;20551;-61
2023/05/01 00:57:14;;;;;;;6.13;5.35;;;;;;;12.69;60.81;94630.34;4219985;28;20055;-60
2023/05/01 00:59:15;;;;;;;6.25;5.57;;;;;;;12.55;61.24;94632.88;4221060;28;20048;-63
2023/05/01 01:01:18;;;;;;;5.78;5.18;;;;;;;12.58;61.48;94633.34;4219620;28;20058;-62
2023/05/01 01:03:20;;;;;;;6.65;5.40;;;;;;;12.66;61.13;94635.13;4228816;28;20051;-62
2023/05/01 01:05:24;;;;;;;6.53;5.20;;;;;;;12.72;60.94;94630.97;4228716;28;20050;-62
2023/05/01 01:07:36;;;;;;;7.93;5.65;;;;;;;12.81;61.02;94637.81;4198559;28;20102;-62
2023/05/01 01:09:49;;;;;;;8.07;5.32;;;;;;;12.87;60.83;94632.69;4203541;28;20091;-61
2023/05/01 01:12:13;;;;;;;6.55;5.50;;;;;;;12.86;60.72;94635.47;4212210;28;20113;-64
2023/05/01 01:14:18;;;;;;;6.32;5.18;;;;;;;12.87;60.74;94635.31;4229307;27;20043;-62
2023/05/01 01:16:29;;;;;;;6.40;4.85;;;;;;;12.86;60.63;94644.19;4229541;28;20078;-62
2023/05/01 01:18:31;;;;;;;7.60;5.55;;;;;;;12.88;60.37;94634.34;4222782;28;20040;-61
2023/05/01 01:20:48;;;;;;;5.47;4.88;;;;;;;12.89;60.77;94638.59;4225443;28;20047;-61
2023/05/01 01:22:59;;;;;;;5.82;5.13;;;;;;;12.91;60.77;94639.22;4204251;28;20055;-61
2023/05/01 01:25:16;;;;;;;5.50;5.00;;;;;;;12.94;60.15;94640.69;4227609;28;20047;-60
2023/05/01 01:27:45;;;;;;;6.25;5.40;;;;;;;12.98;60.01;94643.78;4224953;28;20108;-61
2023/05/01 01:30:05;;;;;;;9.27;4.93;;;;;;;12.96;60.35;94643.97;4216752;28;20409;-61
2023/05/01 01:32:16;;;;;;;5.80;5.25;;;;;;;12.96;60.38;94649.22;4221862;28;20043;-62
2023/05/01 01:34:39;;;;;;;6.35;5.60;;;;;;;12.90;60.81;94642.03;4222968;28;20040;-61
2023/05/01 01:36:43;;;;;;;7.78;5.53;;;;;;;12.64;60.90;94648.41;4219993;28;20112;-61
2023/05/01 01:38:46;;;;;;;5.90;5.30;;;;;;;12.42;61.59;94654.47;4219967;28;20538;-61
2023/05/01 01:41:19;;;;;;;5.85;5.15;;;;;;;12.28;62.36;94659.44;4217650;28;20048;-62
2023/05/01 01:43:22;;;;;;;8.18;5.30;;;;;;;12.22;62.46;94651.44;4219656;28;20047;-61
2023/05/01 01:45:35;;;;;;;7.67;5.30;;;;;;;12.19;62.50;94654.38;4224766;28;20040;-62
2023/05/01 01:47:40;;;;;;;5.95;5.32;;;;;;;12.24;62.43;94652.91;4218303;28;20243;-62
2023/05/01 01:49:46;;;;;;;6.35;5.38;;;;;;;12.29;62.14;94653.19;4219562;28;20086;-62
2023/05/01 01:51:49;;;;;;;8.20;6.00;;;;;;;12.25;62.20;94648.44;4223605;28;20051;-63
2023/05/01 01:53:52;;;;;;;7.68;5.65;;;;;;;12.08;62.80;94647.69;4209631;28;20056;-61
2023/05/01 01:55:56;;;;;;;6.28;4.85;;;;;;;11.46;64.22;94649.13;4216282;28;20079;-63
2023/05/01 01:57:58;;;;;;;7.47;5.53;;;;;;;11.43;65.00;94648.63;4223525;28;20043;-62
2023/05/01 02:00:00;;;;;;;11.07;6.00;;;;;;;11.55;64.98;94643.84;4221703;28;20083;-62
2023/05/01 02:02:03;;;;;;;7.38;5.50;;;;;;;11.67;64.64;94632.03;4219886;28;20055;-61
2023/05/01 02:04:06;;;;;;;7.13;6.20;;;;;;;11.79;63.95;94635.13;4217004;28;20048;-61
2023/05/01 02:06:09;;;;;;;7.05;5.43;;;;;;;11.88;63.67;94645.44;4215085;28;20054;-61
2023/05/01 02:08:12;;;;;;;10.82;5.68;;;;;;;12.02;63.58;94643.09;4212490;28;20163;-62
2023/05/01 02:10:15;;;;;;;6.20;5.60;;;;;;;12.10;63.10;94645.72;4221051;28;20097;-63
2023/05/01 02:12:17;;;;;;;8.05;5.68;;;;;;;12.18;63.10;94642.25;4215887;28;20093;-63
2023/05/01 02:14:19;;;;;;;6.00;5.40;;;;;;;12.17;62.91;94633.53;4212698;28;20041;-61
2023/05/01 02:16:24;;;;;;;7.10;5.30;;;;;;;12.16;63.06;94637.16;4219548;28;20456;-60
2023/05/01 02:18:28;;;;;;;5.88;5.28;;;;;;;12.21;63.03;94634.84;4212902;28;20123;-61
2023/05/01 02:20:30;;;;;;;9.77;5.53;;;;;;;12.25;62.67;94633.50;4222051;28;20052;-61
2023/05/01 02:22:32;;;;;;;7.10;5.43;;;;;;;12.25;62.75;94630.06;4214649;28;20416;-61
2023/05/01 02:24:34;;;;;;;9.48;5.70;;;;;;;12.29;62.59;94628.75;4214042;28;20127;-62
2023/05/01 02:26:44;;;;;;;6.30;5.60;;;;;;;12.31;62.72;94628.56;4215480;28;20055;-62
2023/05/01 02:28:46;;;;;;;7.53;5.95;;;;;;;12.30;62.67;94632.97;4207934;28;20141;-62
2023/05/01 02:30:48;;;;;;;7.03;6.32;;;;;;;12.23;63.08;94638.09;4217503;28;20044;-61
2023/05/01 02:32:49;;;;;;;9.02;5.80;;;;;;;12.11;63.23;94636.03;4211085;28;20075;-62
2023/05/01 02:34:51;;;;;;;6.13;5.53;;;;;;;12.05;63.61;94648.84;4221534;28;20048;-61
2023/05/01 02:36:52;;;;;;;10.05;6.32;;;;;;;12.04;63.87;94646.38;4221412;28;20442;-61
2023/05/01 02:38:54;;;;;;;8.73;6.35;;;;;;;11.95;64.25;94642.16;4225671;28;20044;-62
2023/05/01 02:40:57;;;;;;;7.85;5.85;;;;;;;11.81;64.38;94641.03;4228568;28;20082;-61
2023/05/01 02:42:59;;;;;;;10.27;6.28;;;;;;;11.73;64.88;94638.41;4220333;28;20443;-61
2023/05/01 02:45:03;;;;;;;7.40;6.28;;;;;;;11.60;64.78;94646.81;4220597;28;20289;-62
2023/05/01 02:47:06;;;;;;;9.00;6.47;;;;;;;11.51;65.06;94642.53;4221752;28;20056;-62
2023/05/01 02:49:08;;;;;;;8.00;6.55;;;;;;;11.55;65.31;94643.84;4220575;28;20127;-62
2023/05/01 02:51:10;;;;;;;7.55;6.43;;;;;;;11.42;65.17;94642.56;4210800;28;20048;-63
2023/05/01 02:53:14;;;;;;;8.70;6.70;;;;;;;11.25;65.92;94647.00;4210971;28;20050;-61
2023/05/01 02:55:16;;;;;;;8.13;6.57;;;;;;;11.27;66.16;94649.44;4217649;28;20492;-62
2023/05/01 02:57:19;;;;;;;8.45;6.90;;;;;;;11.37;65.90;94651.91;4217411;28;20050;-63
2023/05/01 02:59:20;;;;;;;7.30;6.57;;;;;;;11.54;65.42;94650.09;4222248;28;20044;-61
2023/05/01 03:01:23;;;;;;;9.70;6.68;;;;;;;11.65;64.74;94652.34;4227748;28;20609;-61
2023/05/01 03:03:26;;;;;;;9.23;6.50;;;;;;;11.75;64.82;94650.38;4217043;28;20090;-61
2023/05/01 03:05:28;;;;;;;10.13;6.95;;;;;;;11.82;64.36;94646.09;4222309;28;20517;-61
2023/05/01 03:07:33;;;;;;;10.85;6.65;;;;;;;11.91;64.05;94646.91;4214199;28;20135;-62
2023/05/01 03:09:35;;;;;;;8.77;6.65;;;;;;;11.99;63.54;94641.66;4213363;28;20139;-61
2023/05/01 03:11:37;;;;;;;8.63;6.32;;;;;;;12.03;63.63;94642.13;4207734;28;20078;-63
2023/05/01 03:13:39;;;;;;;8.40;6.88;;;;;;;12.04;63.46;94646.38;4211960;28;20127;-60
2023/05/01 03:15:41;;;;;;;8.30;6.88;;;;;;;12.01;63.29;94644.91;4211977;28;20067;-62
2023/05/01 03:17:42;;;;;;;8.73;6.78;;;;;;;12.01;63.44;94649.38;4210798;28;20059;-61
2023/05/01 03:19:44;;;;;;;9.68;7.40;;;;;;;11.80;64.10;94658.56;4216613;28;20050;-61
2023/05/01 03:21:46;;;;;;;10.05;8.80;;;;;;;11.58;65.18;94660.06;4226177;28;20462;-60
2023/05/01 03:23:48;;;;;;;11.25;8.38;;;;;;;11.51;65.60;94647.78;4226488;28;20051;-62
2023/05/01 03:25:50;;;;;;;12.63;7.55;;;;;;;11.50;65.86;94654.84;4212270;28;20047;-62
2023/05/01 03:27:51;;;;;;;13.80;7.53;;;;;;;11.51;65.60;94653.03;4213049;28;20560;-63
2023/05/01 03:29:55;;;;;;;;;;;;;;;11.52;65.60;94658.13;4223911;28;20059;-61
2023/05/01 03:31:57;;;;;;;13.00;8.52;;;;;;;11.38;66.01;94654.38;4221409;28;19920;-61
2023/05/01 03:33:59;;;;;;;9.38;7.80;;;;;;;11.32;66.21;94667.31;4208343;28;20055;-59
2023/05/01 03:36:02;;;;;;;10.48;8.75;;;;;;;11.34;66.51;94667.97;4210509;28;20468;-62
2023/05/01 03:38:04;;;;;;;9.77;8.15;;;;;;;11.22;66.47;94672.72;4210755;28;20397;-62
2023/05/01 03:40:07;;;;;;;9.98;8.98;;;;;;;11.16;66.49;94668.13;4217401;28;20051;-63
2023/05/01 03:42:08;;;;;;;10.68;8.15;;;;;;;11.12;66.77;94672.03;4226662;27;20151;-61
2023/05/01 03:44:10;;;;;;;12.80;8.55;;;;;;;11.14;66.91;94677.94;4223868;28;20051;-60
2023/05/01 03:46:12;;;;;;;11.18;9.32;;;;;;;11.18;67.04;94684.50;4211345;28;20060;-60
2023/05/01 03:48:13;;;;;;;12.93;9.63;;;;;;;11.20;67.09;94690.41;4214134;28;20083;-61
2023/05/01 03:50:15;;;;;;;12.90;9.55;;;;;;;11.24;67.01;94691.72;4211252;28;20470;-61
2023/05/01 03:52:17;;;;;;;13.38;9.60;;;;;;;11.32;67.21;94693.56;4214281;28;20059;-61
2023/05/01 03:54:18;;;;;;;14.23;10.77;;;;;;;11.42;66.90;94695.03;4210950;28;20056;-60
2023/05/01 03:56:20;;;;;;;11.98;10.10;;;;;;;11.56;66.57;94695.34;4220760;28;20042;-67
2023/05/01 03:58:22;;;;;;;12.18;10.35;;;;;;;11.62;66.39;94700.75;4220393;28;20101;-61
2023/05/01 04:00:24;;;;;;;13.77;10.52;;;;;;;11.67;66.04;94695.00;4223231;28;20054;-62
2023/05/01 04:02:26;;;;;;;12.75;10.82;;;;;;;11.69;65.79;94700.91;4224168;28;20058;-62
2023/05/01 04:04:28;;;;;;;14.93;10.90;;;;;;;11.73;65.99;94701.41;4226172;28;20062;-61
2023/05/01 04:06:31;;;;;;;15.63;10.45;;;;;;;11.80;65.68;94700.56;4216680;28;20059;-61
2023/05/01 04:08:33;;;;;;;12.90;10.25;;;;;;;11.88;65.29;94699.75;4223438;28;20527;-60
2023/05/01 04:10:34;;;;;;;14.80;10.60;;;;;;;11.88;65.17;94695.31;4224620;28;20584;-59
2023/05/01 04:12:36;;;;;;;11.63;10.05;;;;;;;11.86;65.16;94692.00;4211765;28;20054;-59
2023/05/01 04:14:38;;;;;;;15.32;10.27;;;;;;;11.85;65.25;94694.81;4212102;28;20661;-60
2023/05/01 04:16:39;;;;;;;15.98;10.85;;;;;;;11.88;64.95;94697.94;4212175;28;20056;-59
2023/05/01 04:18:42;;;;;;;11.88;9.10;;;;;;;11.92;65.25;94701.06;4211067;28;20048;-60
2023/05/01 04:20:43;;;;;;;12.40;9.52;;;;;;;12.06;64.80;94692.47;4222731;28;20054;-60
2023/05/01 04:22:45;;;;;;;14.05;9.95;;;;;;;12.18;64.56;94700.84;4224022;28;20047;-61
2023/05/01 04:24:46;;;;;;;16.00;9.43;;;;;;;12.40;63.74;94699.28;4226021;28;20043;-59
2023/05/01 04:26:49;;;;;;;15.25;9.98;;;;;;;12.47;63.36;94700.22;4215592;28;20475;-60
2023/05/01 04:28:51;;;;;;;10.90;9.27;;;;;;;12.40;63.49;94693.22;4220440;28;20044;-60
2023/05/01 04:30:52;;;;;;;12.35;10.10;;;;;;;12.53;63.50;94698.75;4220449;28;20136;-61
2023/05/01 04:32:54;;;;;;;16.95;9.95;;;;;;;12.58;62.84;94695.59;4218610;28;20442;-60
2023/05/01 04:34:56;;;;;;;14.15;10.55;;;;;;;12.60;62.64;94701.50;4226157;28;20069;-60
2023/05/01 04:36:58;;;;;;;16.98;10.93;;;;;;;12.68;62.85;94707.53;4225676;28;20536;-60
2023/05/01 04:39:00;;;;;;;13.90;10.07;;;;;;;12.72;62.43;94705.38;4224082;28;20067;-62
2023/05/01 04:41:02;;;;;;;12.63;10.00;;;;;;;12.71;62.76;94709.00;4225225;27;20113;-60
2023/05/01 04:43:04;;;;;;;13.23;9.70;;;;;;;12.70;62.54;94704.75;4225210;28;20108;-61
2023/05/01 04:45:05;;;;;;;17.70;10.77;;;;;;;12.71;62.78;94709.00;4224633;27;20054;-61
2023/05/01 04:47:07;;;;;;;12.80;10.15;;;;;;;12.64;62.73;94705.41;4223604;28;20063;-59
2023/05/01 04:49:10;;;;;;;12.70;10.10;;;;;;;12.60;62.80;94704.94;4226146;28;20083;-59
2023/05/01 04:51:12;;;;;;;16.38;10.63;;;;;;;12.52;62.94;94705.00;4225186;28;20059;-61
2023/05/01 04:53:14;;;;;;;14.85;10.85;;;;;;;12.45;63.22;94702.22;4222415;28;20113;-58
2023/05/01 04:55:16;;;;;;;15.10;10.75;;;;;;;12.39;63.71;94709.94;4229418;28;20452;-61
2023/05/01 04:57:18;;;;;;;14.75;10.15;;;;;;;12.37;63.78;94704.88;4222238;28;20086;-61
2023/05/01 04:59:19;;;;;;;11.10;9.57;;;;;;;12.34;63.42;94714.91;4221142;28;20082;-61
2023/05/01 05:01:21;;;;;;;11.52;10.32;;;;;;;12.20;64.27;94709.38;4230212;28;20051;-62
2023/05/01 05:03:22;;;;;;;17.77;10.50;;;;;;;12.33;64.09;94718.53;4219290;28;20076;-61
2023/05/01 05:05:24;;;;;;;10.45;9.35;;;;;;;12.28;63.89;94714.59;4226365;28;20055;-60
2023/05/01 05:07:26;;;;;;;13.15;8.90;;;;;;;12.16;63.95;94721.19;4219490;28;20082;-61
2023/05/01 05:09:28;;;;;;;10.80;9.52;;;;;;;12.13;64.66;94718.91;4213787;28;20044;-60
2023/05/01 05:11:29;;;;;;;12.15;10.15;;;;;;;12.18;64.49;94726.28;4215298;28;20109;-59
2023/05/01 05:13:31;;;;;;;13.65;10.25;;;;;;;12.37;64.40;94725.06;4214753;28;20055;-61
2023/05/01 05:15:33;;;;;;;12.40;9.25;;;;;;;12.36;63.81;94732.13;4213267;28;20044;-62
2023/05/01 05:17:34;;;;;;;13.02;9.32;;;;;;;12.47;64.12;94730.94;4214635;28;20044;-62
2023/05/01 05:19:36;;;;;;;11.00;9.30;;;;;;;12.53;63.72;94738.16;4219563;28;20085;-61
2023/05/01 05:21:38;;;;;;;12.65;8.70;;;;;;;12.57;63.67;94730.75;4228093;28;20054;-59
2023/05/01 05:23:39;;;;;;;13.57;8.75;;;;;;;12.55;63.90;94740.63;4228875;28;20477;-61
2023/05/01 05:25:41;;;;;;;11.45;9.13;;;;;;;12.42;64.23;94743.78;4227250;28;20036;-63
2023/05/01 05:27:43;;;;;;;12.68;10.60;;;;;;;12.22;64.74;94745.97;4226817;28;20047;-62
2023/05/01 05:29:44;;;;;;;11.43;10.15;;;;;;;12.09;65.56;94749.94;4225475;28;20047;-62
2023/05/01 05:31:46;;;;;;;10.77;9.55;;;;;;;12.30;65.41;94748.56;4225003;28;20112;-60
2023/05/01 05:33:48;;;;;;;12.55;9.30;;;;;;;12.52;64.72;94748.81;4223052;28;20052;-61
2023/05/01 05:35:51;;;;;;;11.07;9.50;;;;;;;12.65;64.10;94749.94;4223979;28;20101;-60
2023/05/01 05:37:53;;;;;;;11.70;8.93;;;;;;;12.75;64.00;94744.47;4227839;28;20128;-60
2023/05/01 05:39:55;;;;;;;12.40;9.40;;;;;;;12.79;63.31;94747.56;4224768;28;20303;-60
2023/05/01 05:41:57;;;;;;;12.27;9.07;;;;;;;12.64;63.79;94753.53;4227998;28;20493;-60
2023/05/01 05:43:59;;;;;;;15.07;9.35;;;;;;;12.74;63.74;94750.72;4223977;28;20124;-62
2023/05/01 05:46:01;;;;;;;12.13;9.35;;;;;;;12.99;63.72;94761.13;4224626;28;20087;-64
2023/05/01 05:48:03;;;;;;;14.13;9.38;;;;;;;13.19;62.39;94753.63;4218683;28;20062;-62
2023/05/01 05:50:06;;;;;;;12.55;9.35;;;;;;;13.26;62.30;94750.09;4221840;28;20048;-64
2023/05/01 05:52:07;;;;;;;17.13;9.40;;;;;;;13.14;62.98;94754.13;4223819;28;20100;-63
2023/05/01 05:54:10;;;;;;;11.27;9.48;;;;;;;13.03;62.38;94755.34;4228729;28;20076;-60
2023/05/01 05:56:11;;;;;;;11.43;8.95;;;;;;;12.41;64.46;94753.47;4214326;28;20056;-62
2023/05/01 05:58:18;;;;;;;10.27;9.02;;;;;;;12.26;65.42;94761.22;4218231;28;20046;-63
2023/05/01 06:00:20;;;;;;;13.32;9.77;;;;;;;12.48;64.94;94757.06;4216320;28;20199;-61
2023/05/01 06:02:22;;;;;;;11.18;9.40;;;;;;;12.52;64.93;94760.19;4216112;28;20052;-62
2023/05/01 06:04:24;;;;;;;14.88;9.07;;;;;;;12.68;64.42;94765.34;4223713;28;20044;-61
2023/05/01 06:06:26;;;;;;;14.07;9.88;;;;;;;12.94;63.68;94760.81;4216427;28;20044;-63
2023/05/01 06:08:28;;;;;;;10.60;8.60;;;;;;;13.21;63.05;94767.44;4212799;28;20067;-62
2023/05/01 06:10:30;;;;;;;10.40;8.48;;;;;;;13.28;62.95;94765.72;4215914;28;20174;-61
2023/05/01 06:12:31;;;;;;;9.75;8.35;;;;;;;13.38;62.73;94760.25;4213491;28;20079;-62
2023/05/01 06:14:36;;;;;;;12.18;8.57;;;;;;;13.47;62.20;94764.50;4214439;28;20044;-64
2023/05/01 06:16:38;;;;;;;10.57;8.63;;;;;;;13.55;61.90;94764.44;4214735;28;20470;-62
2023/05/01 06:18:40;;;;;;;13.15;10.02;;;;;;;13.74;61.34;94768.38;4212231;28;20552;-62
2023/05/01 06:20:44;;;;;;;11.27;9.18;;;;;;;13.66;61.53;94766.66;4220781;28;20489;-63
2023/05/01 06:22:46;;;;;;;12.73;9.93;;;;;;;13.75;61.90;94764.78;4204793;28;20496;-62
2023/05/01 06:24:48;;;;;;;10.75;8.98;;;;;;;13.73;61.49;94767.56;4213877;28;20044;-64
2023/05/01 06:26:49;;;;;;;12.82;9.90;;;;;;;13.39;62.42;94768.00;4218814;28;20044;-64
2023/05/01 06:28:51;;;;;;;14.77;10.18;;;;;;;13.54;62.87;94765.41;4211514;28;20048;-65
2023/05/01 06:30:52;;;;;;;11.65;9.07;;;;;;;13.72;62.30;94767.75;4220387;28;20375;-62
2023/05/01 06:32:54;;;;;;;11.13;9.32;;;;;;;13.95;61.58;94773.00;4227389;28;20054;-64
2023/05/01 06:34:56;;;;;;;13.82;10.05;;;;;;;14.16;61.02;94768.88;4228221;28;20043;-62
2023/05/01 06:36:58;;;;;;;13.25;9.65;;;;;;;14.19;61.11;94761.41;4227883;28;20407;-63
2023/05/01 06:38:59;;;;;;;11.65;9.80;;;;;;;14.37;60.14;94774.25;4228097;28;20048;-62
2023/05/01 06:41:01;;;;;;;12.85;9.95;;;;;;;14.53;59.40;94768.00;4224055;28;20059;-62
2023/05/01 06:43:03;;;;;;;10.07;9.07;;;;;;;14.68;59.40;94771.47;4211003;28;20522;-63
2023/05/01 06:45:06;;;;;;;10.95;9.35;;;;;;;14.89;59.14;94764.66;4212221;28;20438;-62
2023/05/01 06:47:08;;;;;;;11.37;10.17;;;;;;;14.90;58.45;94767.09;4209722;28;20052;-63
2023/05/01 06:49:09;;;;;;;13.02;9.85;;;;;;;14.61;59.03;94775.03;4211941;28;20371;-64
2023/05/01 06:51:14;;;;;;;14.75;9.60;;;;;;;14.19;60.02;94768.50;4211655;28;20047;-61
2023/05/01 06:53:34;;;;;;;11.05;9.43;;;;;;;14.38;60.18;94765.34;4211220;28;20066;-63
2023/05/01 06:55:35;;;;;;;14.05;11.02;;;;;;;14.30;59.98;94775.97;4216146;28;20079;-62
2023/05/01 06:57:38;;;;;;;15.32;10.20;;;;;;;14.40;59.81;94765.97;4217702;28;20044;-62
2023/05/01 06:59:40;;;;;;;11.88;9.15;;;;;;;14.74;59.57;94768.09;4222188;28;20090;-66
2023/05/01 07:01:42;;;;;;;14.55;10.18;;;;;;;15.03;58.26;94771.69;4218125;28;20089;-64
2023/05/01 07:03:43;;;;;;;12.15;9.93;;;;;;;15.29;57.36;94775.66;4211729;28;20156;-62
2023/05/01 07:05:45;;;;;;;11.35;9.13;;;;;;;15.54;56.65;94773.50;4211594;28;20043;-63
2023/05/01 07:07:48;;;;;;;10.95;8.43;;;;;;;15.74;56.33;94777.19;4210334;28;20044;-64
2023/05/01 07:10:01;;;;;;;11.50;10.38;;;;;;;15.82;55.60;94778.88;4211832;28;20528;-62
2023/05/01 07:12:04;;;;;;;11.48;10.07;;;;;;;15.86;55.76;94774.03;4223861;28;20092;-62
2023/05/01 07:14:06;;;;;;;11.82;8.73;;;;;;;15.96;55.22;94772.72;4212031;28;20052;-65
2023/05/01 07:16:07;;;;;;;14.95;8.40;;;;;;;16.06;54.75;94776.84;4212803;28;20048;-63
2023/05/01 07:18:11;;;;;;;12.02;8.77;;;;;;;16.13;54.02;94770.63;4211900;28;20488;-63
2023/05/01 07:20:15;;;;;;;;;;;;;;;16.05;55.20;94775.22;4220823;28;20535;-63
2023/05/01 07:22:18;;;;;;;12.40;9.85;;;;;;;15.84;55.57;94779.50;4218151;28;19985;-64
2023/05/01 07:24:20;;;;;;;15.15;11.43;;;;;;;15.83;55.86;94782.31;4221830;28;20131;-63
2023/05/01 07:26:22;;;;;;;12.80;10.07;;;;;;;15.71;55.86;94782.84;4222832;28;20446;-63
2023/05/01 07:28:24;;;;;;;15.02;11.13;;;;;;;15.68;55.54;94782.34;4218781;28;20047;-63
2023/05/01 07:30:25;;;;;;;17.77;12.18;;;;;;;15.70;55.73;94782.97;4212448;28;20124;-63
2023/05/01 07:32:27;;;;;;;16.83;10.90;;;;;;;15.54;55.96;94779.59;4215720;28;20084;-64
2023/05/01 07:34:29;;;;;;;13.98;10.65;;;;;;;15.73;55.72;94780.81;4219301;28;20043;-63
2023/05/01 07:36:32;;;;;;;12.63;9.15;;;;;;;15.97;55.54;94786.72;4216740;28;20569;-63
2023/05/01 07:38:34;;;;;;;13.52;9.27;;;;;;;16.26;55.02;94777.81;4217955;28;20075;-63
2023/05/01 07:40:37;;;;;;;10.75;7.85;;;;;;;16.47;53.55;94778.78;4220139;28;20040;-63
2023/05/01 07:42:39;;;;;;;12.40;6.72;;;;;;;16.47;52.21;94774.28;4221329;28;20074;-63
2023/05/01 07:44:40;;;;;;;10.95;7.70;;;;;;;16.46;53.13;94774.50;4219327;28;20039;-64
2023/05/01 07:46:42;;;;;;;10.65;8.23;;;;;;;16.51;53.10;94778.19;4218814;28;20043;-62
2023/05/01 07:48:44;;;;;;;13.50;8.43;;;;;;;16.59;53.00;94778.03;4217952;28;20059;-63
2023/05/01 07:50:45;;;;;;;8.60;7.43;;;;;;;16.58;52.32;94781.72;4215597;28;20075;-63
2023/05/01 07:52:47;;;;;;;11.30;7.20;;;;;;;16.56;51.98;94775.78;4218878;28;20051;-63
2023/05/01 07:54:50;;;;;;;13.27;7.47;;;;;;;16.66;51.67;94772.78;4222014;28;20093;-64
2023/05/01 07:56:51;;;;;;;9.30;6.95;;;;;;;16.78;51.80;94776.53;4226991;28;20200;-61
2023/05/01 07:58:53;;;;;;;9.32;7.68;;;;;;;16.76;51.76;94783.03;4226535;28;20107;-63
2023/05/01 08:00:54;;;;;;;10.57;7.97;;;;;;;16.98;51.39;94781.94;4214226;28;20097;-65
2023/05/01 08:02:56;;;;;;;12.10;7.70;;;;;;;17.07;51.31;94777.28;4226448;28;20047;-63
2023/05/01 08:04:58;;;;;;;11.27;7.38;;;;;;;17.17;50.54;94775.09;4226606;28;20047;-64
2023/05/01 08:06:59;;;;;;;7.68;6.43;;;;;;;17.30;50.04;94774.34;4224879;28;20047;-64
2023/05/01 08:09:01;;;;;;;10.80;7.15;;;;;;;17.21;50.17;94775.53;4202195;28;20039;-62
2023/05/01 08:11:03;;;;;;;8.90;6.13;;;;;;;17.13;49.40;94773.88;4221767;28;20120;-64
2023/05/01 08:13:04;;;;;;;7.45;5.68;;;;;;;17.38;49.53;94768.06;4210749;28;20141;-62
2023/05/01 08:15:06;;;;;;;8.00;5.80;;;;;;;17.14;48.68;94779.97;4223834;28;20052;-60
2023/05/01 08:17:08;;;;;;;9.93;6.75;;;;;;;16.76;50.20;94770.63;4221931;28;20068;-63
2023/05/01 08:19:10;;;;;;;8.07;6.63;;;;;;;17.11;50.09;94775.06;4212249;28;20051;-64
2023/05/01 08:21:11;;;;;;;10.27;6.88;;;;;;;17.22;49.41;94771.84;4220708;28;20043;-60
2023/05/01 08:23:14;;;;;;;8.23;5.50;;;;;;;17.12;48.82;94774.06;4227133;28;20424;-64
2023/05/01 08:25:16;;;;;;;5.43;4.90;;;;;;;17.32;48.61;94772.31;4227677;28;20096;-62
2023/05/01 08:27:17;;;;;;;9.75;4.30;;;;;;;17.58;47.92;94771.56;4224453;28;20079;-63
2023/05/01 08:29:19;;;;;;;6.65;4.40;;;;;;;17.26;46.94;94773.09;4223858;28;20478;-65
2023/05/01 08:31:21;;;;;;;7.35;5.00;;;;;;;17.15;47.50;94765.72;4212592;28;20047;-62
2023/05/01 08:33:23;;;;;;;5.88;4.90;;;;;;;16.85;48.26;94771.28;4217562;28;20638;-63
2023/05/01 08:35:25;;;;;;;10.48;4.97;;;;;;;16.80;48.40;94773.72;4223131;28;20104;-64
2023/05/01 08:37:27;;;;;;;6.40;4.78;;;;;;;16.93;48.40;94773.78;4210668;28;20052;-63
2023/05/01 08:39:28;;;;;;;9.15;5.28;;;;;;;16.99;48.58;94762.41;4215472;28;20078;-63
2023/05/01 08:41:31;;;;;;;8.00;5.28;;;;;;;16.91;48.53;94761.78;4227458;28;20362;-64
2023/05/01 08:43:33;;;;;;;4.23;3.30;;;;;;;16.92;46.60;94768.69;4226096;28;20051;-64
2023/05/01 08:45:36;;;;;;;7.93;3.90;;;;;;;17.17;46.43;94764.50;4213524;28;20060;-62
2023/05/01 08:47:39;;;;;;;8.40;3.97;;;;;;;17.34;47.25;94759.69;4225910;28;20063;-64
2023/05/01 08:49:41;;;;;;;6.38;4.50;;;;;;;17.28;47.06;94770.25;4218289;28;20456;-62
2023/05/01 08:51:46;;;;;;;7.95;4.30;;;;;;;17.42;46.26;94761.31;4221919;28;20451;-64
2023/05/01 08:53:51;;;;;;;6.65;4.03;;;;;;;17.67;45.75;94752.84;4211442;28;20051;-63
2023/05/01 08:55:55;;;;;;;5.85;3.97;;;;;;;18.04;45.91;94759.41;4222006;28;20083;-67
2023/05/01 08:57:58;;;;;;;5.75;4.47;;;;;;;18.16;45.33;94757.78;4225863;28;20101;-64
2023/05/01 09:00:00;;;;;;;6.15;4.45;;;;;;;18.21;45.02;94754.50;4218925;28;20456;-63
2023/05/01 09:02:04;;;;;;;5.40;3.95;;;;;;;18.06;45.45;94752.06;4209635;28;20060;-64
2023/05/01 09:04:07;;;;;;;6.22;4.00;;;;;;;17.92;45.46;94755.75;4223780;28;20050;-66
2023/05/01 09:06:10;;;;;;;6.22;4.10;;;;;;;17.95;45.93;94750.84;4209841;28;20055;-62
2023/05/01 09:08:12;;;;;;;7.07;4.20;;;;;;;18.09;45.64;94756.13;4209764;28;20048;-64
2023/05/01 09:10:15;;;;;;;6.53;4.35;;;;;;;17.78;45.87;94752.22;4210595;28;20242;-63
2023/05/01 09:12:16;;;;;;;8.75;4.20;;;;;;;18.04;46.42;94753.31;4208696;28;20090;-62
2023/05/01 09:14:18;;;;;;;4.57;3.67;;;;;;;18.42;44.58;94746.34;4211726;28;20602;-64
2023/05/01 09:16:20;;;;;;;9.27;3.67;;;;;;;18.50;44.28;94749.78;4211261;28;20089;-64
2023/05/01 09:18:23;;;;;;;3.90;3.15;;;;;;;18.33;43.79;94747.56;4214460;28;20420;-64
2023/05/01 09:20:24;;;;;;;6.30;3.42;;;;;;;18.29;44.09;94749.00;4221675;28;20151;-64
2023/05/01 09:22:26;;;;;;;8.70;3.15;;;;;;;18.42;44.10;94745.53;4225581;28;20047;-62
2023/05/01 09:24:28;;;;;;;8.30;3.78;;;;;;;18.47;44.05;94751.03;4230172;28;20047;-63
2023/05/01 09:26:33;;;;;;;6.18;3.63;;;;;;;18.20;43.83;94748.41;4229419;27;20056;-65
2023/05/01 09:28:44;;;;;;;8.90;3.67;;;;;;;18.14;44.44;94766.97;4228920;28;20052;-63
2023/05/01 09:30:45;;;;;;;7.25;2.90;;;;;;;18.17;42.92;94750.63;4218690;28;20511;-63
2023/05/01 09:33:03;;;;;;;4.97;3.05;;;;;;;18.47;43.03;94758.97;4224025;28;20051;-61
2023/05/01 09:35:10;;;;;;;3.70;2.70;;;;;;;18.60;43.09;94750.19;4225809;28;20112;-65